createdAt,value
2022-07-25T00:00:34.201Z,39.2
2022-07-25T00:01:36.069Z,39.1
2022-07-25T00:02:38.104Z,39.3
2022-07-25T00:03:40.158Z,39.3
2022-07-25T00:04:44.462Z,39.2
2022-07-25T00:05:46.520Z,39.2
2022-07-25T00:06:48.206Z,39.2
2022-07-25T00:07:50.125Z,39.2
2022-07-25T00:08:51.841Z,39.1
2022-07-25T00:09:53.528Z,39.2
2022-07-25T00:10:55.156Z,39.2
2022-07-25T00:11:56.682Z,39.3
2022-07-25T00:12:58.345Z,39.4
2022-07-25T00:14:00.010Z,39.4
2022-07-25T00:15:01.777Z,39.3
2022-07-25T00:16:03.666Z,39.3
2022-07-25T00:17:05.481Z,39.3
2022-07-25T00:18:07.026Z,39.3
2022-07-25T00:19:08.595Z,39.2
2022-07-25T00:20:10.315Z,39.3
2022-07-25T00:21:11.856Z,39.4
2022-07-25T00:22:13.666Z,39.5
2022-07-25T00:23:15.314Z,39.6
2022-07-25T00:24:16.902Z,39.7
2022-07-25T00:25:18.442Z,39.5
2022-07-25T00:26:20.144Z,39.5
2022-07-25T00:27:21.989Z,39.4
2022-07-25T00:28:23.522Z,39.3
2022-07-25T00:29:25.183Z,39.3
2022-07-25T00:30:26.824Z,39.4
2022-07-25T00:31:28.601Z,39.4
2022-07-25T00:32:31.449Z,39.4
2022-07-25T00:33:32.997Z,39.6
2022-07-25T00:34:34.605Z,39.6
2022-07-25T00:35:36.153Z,39.5
2022-07-25T00:36:37.861Z,39.4
2022-07-25T00:37:39.469Z,39.4
2022-07-25T00:38:41.084Z,39.4
2022-07-25T00:39:42.675Z,39.4
2022-07-25T00:40:44.402Z,39.4
2022-07-25T00:41:45.939Z,39.4
2022-07-25T00:42:47.474Z,39.4
2022-07-25T00:43:49.027Z,39.5
2022-07-25T00:44:50.566Z,39.7
2022-07-25T00:45:53.245Z,39.7
2022-07-25T00:46:55.040Z,39.6
2022-07-25T00:47:57.127Z,39.6
2022-07-25T00:48:59.159Z,39.6
2022-07-25T00:50:01.263Z,39.5
2022-07-25T00:51:03.107Z,39.5
2022-07-25T00:52:04.830Z,39.5
2022-07-25T00:53:06.546Z,39.5
2022-07-25T00:54:09.372Z,39.5
2022-07-25T00:55:11.231Z,39.6
2022-07-25T00:56:12.973Z,39.8
2022-07-25T00:57:14.507Z,39.6
2022-07-25T00:58:16.145Z,39.5
2022-07-25T00:59:17.809Z,39.5
2022-07-25T01:00:19.461Z,39.5
2022-07-25T01:01:21.416Z,39.6
2022-07-25T01:02:23.402Z,39.4
2022-07-25T01:03:25.354Z,39.4
2022-07-25T01:04:26.897Z,39.4
2022-07-25T01:05:28.466Z,39.4
2022-07-25T01:06:30.349Z,39.5
2022-07-25T01:07:32.035Z,39.7
2022-07-25T01:08:33.956Z,39.6
2022-07-25T01:09:35.586Z,39.5
2022-07-25T01:10:37.242Z,39.5
2022-07-25T01:11:38.980Z,39.5
2022-07-25T01:12:40.829Z,39.6
2022-07-25T01:13:42.477Z,39.5
2022-07-25T01:14:44.048Z,39.5
2022-07-25T01:15:45.949Z,39.5
2022-07-25T01:16:49.125Z,39.6
2022-07-25T01:17:52.373Z,39.6
2022-07-25T01:18:53.966Z,39.8
2022-07-25T01:19:55.623Z,39.8
2022-07-25T01:20:57.238Z,39.6
2022-07-25T01:21:59.136Z,39.6
2022-07-25T01:23:00.975Z,39.6
2022-07-25T01:24:03.431Z,39.5
2022-07-25T01:25:06.408Z,39.5
2022-07-25T01:26:08.057Z,39.6
2022-07-25T01:27:17.659Z,39.6
2022-07-25T01:28:19.407Z,39.6
2022-07-25T01:29:21.228Z,39.7
2022-07-25T01:30:22.939Z,39.8
2022-07-25T01:31:24.717Z,39.7
2022-07-25T01:32:26.576Z,39.6
2022-07-25T01:33:28.176Z,39.6
2022-07-25T01:34:29.757Z,39.6
2022-07-25T01:35:31.461Z,39.6
2022-07-25T01:36:33.073Z,39.6
2022-07-25T01:37:34.669Z,39.6
2022-07-25T01:38:36.297Z,39.7
2022-07-25T01:39:37.854Z,39.9
2022-07-25T01:40:39.523Z,40
2022-07-25T01:41:41.230Z,39.8
2022-07-25T01:42:42.877Z,39.7
2022-07-25T01:43:44.492Z,39.7
2022-07-25T01:44:46.034Z,39.7
2022-07-25T01:45:47.866Z,39.8
2022-07-25T01:46:50.172Z,39.8
2022-07-25T01:47:51.895Z,39.8
2022-07-25T01:48:53.814Z,39.8
2022-07-25T01:49:55.934Z,39.9
2022-07-25T01:50:57.570Z,40
2022-07-25T01:51:59.106Z,40
2022-07-25T01:53:00.698Z,39.9
2022-07-25T01:54:03.754Z,39.8
2022-07-25T01:55:12.148Z,39.6
2022-07-25T01:56:14.607Z,39.7
2022-07-25T01:57:16.969Z,39.7
2022-07-25T01:58:19.741Z,39.6
2022-07-25T01:59:24.294Z,39.5
2022-07-25T02:00:25.942Z,39.6
2022-07-25T02:01:27.837Z,39.8
2022-07-25T02:02:29.903Z,39.9
2022-07-25T02:03:31.568Z,39.9
2022-07-25T02:04:33.380Z,39.8
2022-07-25T02:05:35.456Z,39.8
2022-07-25T02:06:37.306Z,39.7
2022-07-25T02:07:38.951Z,39.8
2022-07-25T02:08:40.598Z,39.8
2022-07-25T02:09:42.101Z,39.9
2022-07-25T02:10:43.642Z,39.7
2022-07-25T02:11:46.245Z,39.8
2022-07-25T02:12:48.098Z,39.7
2022-07-25T02:13:49.742Z,39.7
2022-07-25T02:14:51.387Z,39.9
2022-07-25T02:15:53.141Z,39.9
2022-07-25T02:16:54.946Z,39.8
2022-07-25T02:17:56.889Z,39.8
2022-07-25T02:18:58.475Z,39.7
2022-07-25T02:20:00.147Z,39.8
2022-07-25T02:21:01.874Z,39.7
2022-07-25T02:22:03.529Z,39.8
2022-07-25T02:23:05.267Z,39.8
2022-07-25T02:24:08.043Z,39.8
2022-07-25T02:25:11.015Z,39.9
2022-07-25T02:26:12.616Z,40
2022-07-25T02:27:14.153Z,40.1
2022-07-25T02:28:16.056Z,39.8
2022-07-25T02:29:22.108Z,39.9
2022-07-25T02:30:24.745Z,39.9
2022-07-25T02:31:26.902Z,39.9
2022-07-25T02:32:28.812Z,39.9
2022-07-25T02:33:30.469Z,39.9
2022-07-25T02:34:32.271Z,39.9
2022-07-25T02:35:33.915Z,39.9
2022-07-25T02:36:35.560Z,39.9
2022-07-25T02:37:37.307Z,39.9
2022-07-25T02:38:39.159Z,40.1
2022-07-25T02:39:40.906Z,40
2022-07-25T02:40:42.549Z,39.9
2022-07-25T02:41:44.139Z,39.9
2022-07-25T02:42:45.845Z,39.9
2022-07-25T02:43:47.457Z,40
2022-07-25T02:44:48.990Z,40
2022-07-25T02:45:50.839Z,40
2022-07-25T02:46:52.732Z,40.1
2022-07-25T02:47:54.376Z,40
2022-07-25T02:48:58.439Z,40
2022-07-25T02:50:00.646Z,40.1
2022-07-25T02:51:02.216Z,40.2
2022-07-25T02:52:03.927Z,40
2022-07-25T02:53:05.577Z,40
2022-07-25T02:54:07.328Z,40
2022-07-25T02:55:10.192Z,40
2022-07-25T02:56:14.396Z,40.1
2022-07-25T02:57:17.885Z,40
2022-07-25T02:58:19.426Z,39.9
2022-07-25T02:59:21.186Z,40
2022-07-25T03:00:22.730Z,40
2022-07-25T03:01:24.785Z,40.1
2022-07-25T03:02:26.835Z,40.3
2022-07-25T03:03:28.378Z,40.3
2022-07-25T03:04:30.891Z,40.2
2022-07-25T03:05:32.838Z,40.1
2022-07-25T03:06:35.356Z,40.1
2022-07-25T03:07:37.100Z,40.1
2022-07-25T03:08:38.746Z,40.1
2022-07-25T03:09:40.298Z,40.1
2022-07-25T03:10:41.841Z,40.1
2022-07-25T03:11:43.461Z,40.1
2022-07-25T03:12:45.130Z,40.1
2022-07-25T03:13:46.974Z,40.2
2022-07-25T03:14:48.583Z,40.4
2022-07-25T03:15:50.880Z,40.4
2022-07-25T03:16:54.444Z,40.3
2022-07-25T03:17:56.387Z,40.3
2022-07-25T03:18:58.070Z,40.2
2022-07-25T03:19:59.710Z,40.3
2022-07-25T03:21:01.433Z,40.2
2022-07-25T03:22:03.041Z,40.2
2022-07-25T03:23:04.855Z,40.2
2022-07-25T03:24:07.367Z,40.4
2022-07-25T03:25:22.023Z,40.5
2022-07-25T03:26:25.249Z,40.3
2022-07-25T03:27:27.146Z,40.2
2022-07-25T03:28:28.743Z,40.3
2022-07-25T03:29:30.351Z,40.2
2022-07-25T03:30:32.137Z,40.3
2022-07-25T03:31:34.115Z,40.2
2022-07-25T03:32:36.084Z,40.2
2022-07-25T03:33:37.614Z,40.2
2022-07-25T03:34:39.208Z,40.3
2022-07-25T03:35:41.082Z,40.4
2022-07-25T03:36:42.725Z,40.4
2022-07-25T03:37:44.358Z,40.4
2022-07-25T03:38:46.125Z,40.2
2022-07-25T03:39:50.365Z,40.5
2022-07-25T03:40:52.172Z,40.5
2022-07-25T03:41:53.824Z,40.3
2022-07-25T03:42:55.470Z,40.4
2022-07-25T03:43:57.213Z,40.6
2022-07-25T03:44:58.754Z,40.8
2022-07-25T03:46:00.706Z,41.1
2022-07-25T03:47:02.604Z,41
2022-07-25T03:48:04.310Z,41.1
2022-07-25T03:49:06.081Z,41.2
2022-07-25T03:50:08.002Z,41.5
2022-07-25T03:51:09.753Z,41.5
2022-07-25T03:52:11.395Z,41.4
2022-07-25T03:53:13.040Z,41.6
2022-07-25T03:54:14.586Z,41.8
2022-07-25T03:55:16.145Z,41.8
2022-07-25T03:56:17.691Z,41.8
2022-07-25T03:57:19.358Z,41.7
2022-07-25T03:58:21.037Z,42
2022-07-25T03:59:22.821Z,41.8
2022-07-25T04:00:24.433Z,41.9
2022-07-25T04:01:27.074Z,41.8
2022-07-25T04:02:29.234Z,41.9
2022-07-25T04:03:33.179Z,42.2
2022-07-25T04:04:34.727Z,42.3
2022-07-25T04:05:36.372Z,42.1
2022-07-25T04:06:37.977Z,42.1
2022-07-25T04:07:39.937Z,42.1
2022-07-25T04:08:41.713Z,42.1
2022-07-25T04:09:43.252Z,42
2022-07-25T04:10:45.011Z,42.4
2022-07-25T04:11:46.758Z,42.7
2022-07-25T04:12:48.701Z,42.9
2022-07-25T04:13:50.344Z,42.9
2022-07-25T04:14:52.096Z,42.4
2022-07-25T04:15:53.640Z,42
2022-07-25T04:16:55.402Z,42.5
2022-07-25T04:17:57.439Z,43
2022-07-25T04:19:01.708Z,43.5
2022-07-25T04:20:05.863Z,43.7
2022-07-25T04:21:09.717Z,43.7
2022-07-25T04:22:11.270Z,43.9
2022-07-25T04:23:13.141Z,43.7
2022-07-25T04:24:14.694Z,43.6
2022-07-25T04:25:16.402Z,43.4
2022-07-25T04:26:18.086Z,43.3
2022-07-25T04:27:19.927Z,43.1
2022-07-25T04:28:21.571Z,42.9
2022-07-25T04:29:23.155Z,42.9
2022-07-25T04:30:25.288Z,42.8
2022-07-25T04:31:27.281Z,42.8
2022-07-25T04:32:29.349Z,42.9
2022-07-25T04:33:31.026Z,43
2022-07-25T04:34:32.775Z,43
2022-07-25T04:35:34.416Z,42.9
2022-07-25T04:36:36.170Z,42.8
2022-07-25T04:37:37.912Z,43
2022-07-25T04:38:39.563Z,43.2
2022-07-25T04:39:41.100Z,43.2
2022-07-25T04:40:42.655Z,43.3
2022-07-25T04:41:44.200Z,43.1
2022-07-25T04:42:45.834Z,43.3
2022-07-25T04:43:49.219Z,43.3
2022-07-25T04:44:50.751Z,43.3
2022-07-25T04:45:52.554Z,43.3
2022-07-25T04:46:54.499Z,43.3
2022-07-25T04:47:56.153Z,43.2
2022-07-25T04:48:57.930Z,43.2
2022-07-25T04:50:00.053Z,43.3
2022-07-25T04:51:01.726Z,43.5
2022-07-25T04:52:03.350Z,43.4
2022-07-25T04:53:05.151Z,43.3
2022-07-25T04:54:07.727Z,43.2
2022-07-25T04:55:10.693Z,43
2022-07-25T04:56:12.406Z,43
2022-07-25T04:57:13.971Z,43.1
2022-07-25T04:58:15.594Z,43.2
2022-07-25T04:59:17.217Z,43.3
2022-07-25T05:00:18.818Z,43.3
2022-07-25T05:01:20.602Z,43.3
2022-07-25T05:02:22.836Z,43.4
2022-07-25T05:03:24.879Z,43.4
2022-07-25T05:04:27.242Z,43.4
2022-07-25T05:05:28.789Z,43.4
2022-07-25T05:06:30.369Z,43.5
2022-07-25T05:07:31.934Z,43.5
2022-07-25T05:08:33.632Z,43.8
2022-07-25T05:09:36.497Z,43.8
2022-07-25T05:10:38.034Z,44
2022-07-25T05:11:47.964Z,44.2
2022-07-25T05:12:58.019Z,44.5
2022-07-25T05:13:59.768Z,44.8
2022-07-25T05:15:01.311Z,44.9
2022-07-25T05:16:03.155Z,45.1
2022-07-25T05:17:05.149Z,45.3
2022-07-25T05:18:06.798Z,45.2
2022-07-25T05:19:08.397Z,45.2
2022-07-25T05:20:09.993Z,45.3
2022-07-25T05:21:11.698Z,45.3
2022-07-25T05:22:13.512Z,45.2
2022-07-25T05:23:15.084Z,45.1
2022-07-25T05:24:16.694Z,45.1
2022-07-25T05:25:18.233Z,45
2022-07-25T05:26:19.778Z,45
2022-07-25T05:27:21.557Z,45
2022-07-25T05:28:23.103Z,44.8
2022-07-25T05:29:24.754Z,44.8
2022-07-25T05:30:27.625Z,44.8
2022-07-25T05:31:29.499Z,44.8
2022-07-25T05:32:31.534Z,44.8
2022-07-25T05:33:33.150Z,44.6
2022-07-25T05:34:34.702Z,44.6
2022-07-25T05:35:36.258Z,44.6
2022-07-25T05:36:37.908Z,44.6
2022-07-25T05:37:39.494Z,44.4
2022-07-25T05:38:41.040Z,44.3
2022-07-25T05:39:42.580Z,44.2
2022-07-25T05:40:44.246Z,44.1
2022-07-25T05:41:49.001Z,44.1
2022-07-25T05:42:50.648Z,44
2022-07-25T05:43:52.399Z,44
2022-07-25T05:44:54.038Z,44
2022-07-25T05:45:55.697Z,43.9
2022-07-25T05:46:57.585Z,43.8
2022-07-25T05:47:59.627Z,43.8
2022-07-25T05:49:01.364Z,43.7
2022-07-25T05:50:03.289Z,43.7
2022-07-25T05:51:04.929Z,43.6
2022-07-25T05:52:13.353Z,43.5
2022-07-25T05:53:15.187Z,43.4
2022-07-25T05:54:16.800Z,43.4
2022-07-25T05:55:18.346Z,43.3
2022-07-25T05:56:20.225Z,43.2
2022-07-25T05:57:21.913Z,43.2
2022-07-25T05:58:29.997Z,43.1
2022-07-25T05:59:32.020Z,43.1
2022-07-25T06:00:33.669Z,43
2022-07-25T06:01:35.578Z,43
2022-07-25T06:02:37.775Z,43
2022-07-25T06:03:40.697Z,42.9
2022-07-25T06:04:42.403Z,42.8
2022-07-25T06:05:44.010Z,42.8
2022-07-25T06:06:48.523Z,42.8
2022-07-25T06:07:50.056Z,42.8
2022-07-25T06:08:54.402Z,42.8
2022-07-25T06:09:56.355Z,42.8
2022-07-25T06:10:58.105Z,43
2022-07-25T06:12:01.675Z,42.8
2022-07-25T06:13:07.643Z,42.8
2022-07-25T06:14:13.894Z,42.6
2022-07-25T06:15:26.798Z,42.5
2022-07-25T06:16:29.375Z,42.3
2022-07-25T06:17:33.054Z,42.2
2022-07-25T06:18:37.625Z,42.5
2022-07-25T06:19:39.167Z,42.1
2022-07-25T06:20:40.707Z,42.1
2022-07-25T06:21:42.514Z,42.1
2022-07-25T06:22:44.059Z,41.8
2022-07-25T06:23:45.646Z,41.6
2022-07-25T06:24:47.344Z,41.6
2022-07-25T06:25:50.703Z,41.4
2022-07-25T06:26:52.396Z,41.3
2022-07-25T06:27:53.938Z,41.3
2022-07-25T06:28:55.500Z,41.3
2022-07-25T06:29:57.255Z,41.4
2022-07-25T06:30:59.157Z,41.3
2022-07-25T06:32:01.503Z,41.3
2022-07-25T06:33:03.697Z,41.4
2022-07-25T06:34:06.178Z,41.3
2022-07-25T06:35:09.214Z,41.2
2022-07-25T06:36:10.978Z,41.2
2022-07-25T06:37:12.855Z,41.1
2022-07-25T06:38:14.650Z,41.1
2022-07-25T06:39:16.499Z,40.9
2022-07-25T06:40:18.275Z,40.9
2022-07-25T06:41:20.016Z,40.8
2022-07-25T06:42:21.669Z,41
2022-07-25T06:43:26.295Z,40.9
2022-07-25T06:44:28.026Z,40.8
2022-07-25T06:45:29.670Z,40.8
2022-07-25T06:46:31.483Z,40.8
2022-07-25T06:47:36.345Z,40.8
2022-07-25T06:48:38.165Z,40.8
2022-07-25T06:49:39.988Z,40.8
2022-07-25T06:50:41.582Z,40.7
2022-07-25T06:51:43.128Z,40.8
2022-07-25T06:52:44.769Z,40.6
2022-07-25T06:53:47.039Z,40.6
2022-07-25T06:54:48.715Z,40.6
2022-07-25T06:55:50.323Z,40.6
2022-07-25T06:56:51.866Z,40.6
2022-07-25T06:57:53.517Z,40.5
2022-07-25T06:58:55.202Z,40.5
2022-07-25T06:59:56.864Z,40.5
2022-07-25T07:00:58.619Z,40.4
2022-07-25T07:02:00.603Z,40.5
2022-07-25T07:03:02.449Z,40.4
2022-07-25T07:04:05.117Z,40.4
2022-07-25T07:05:08.300Z,40.3
2022-07-25T07:06:09.914Z,40.2
2022-07-25T07:07:11.913Z,40.3
2022-07-25T07:08:13.617Z,40.4
2022-07-25T07:09:15.251Z,40.4
2022-07-25T07:10:16.943Z,40.4
2022-07-25T07:11:18.570Z,40.3
2022-07-25T07:12:20.232Z,40.3
2022-07-25T07:13:24.809Z,40.3
2022-07-25T07:14:26.469Z,40.4
2022-07-25T07:15:28.074Z,40.3
2022-07-25T07:16:29.834Z,40.1
2022-07-25T07:17:31.946Z,40.3
2022-07-25T07:18:33.612Z,40.2
2022-07-25T07:19:35.335Z,40.1
2022-07-25T07:20:37.075Z,40.2
2022-07-25T07:21:39.849Z,40
2022-07-25T07:22:42.238Z,40
2022-07-25T07:23:44.583Z,39.9
2022-07-25T07:24:49.594Z,39.7
2022-07-25T07:25:51.720Z,39.5
2022-07-25T07:26:53.426Z,39.9
2022-07-25T07:27:55.355Z,40.2
2022-07-25T07:28:56.985Z,40.2
2022-07-25T07:29:58.747Z,40.3
2022-07-25T07:31:18.257Z,40.1
2022-07-25T07:32:21.168Z,39.9
2022-07-25T07:33:23.250Z,39.9
2022-07-25T07:34:24.881Z,40.2
2022-07-25T07:35:28.166Z,39.9
2022-07-25T07:36:37.649Z,40
2022-07-25T07:37:43.934Z,39.9
2022-07-25T07:38:45.709Z,40.1
2022-07-25T07:39:47.518Z,40
2022-07-25T07:40:49.056Z,40.1
2022-07-25T07:41:50.696Z,40.1
2022-07-25T07:42:52.426Z,40.1
2022-07-25T07:43:54.030Z,39.8
2022-07-25T07:44:55.771Z,39.8
2022-07-25T07:45:57.421Z,39.9
2022-07-25T07:46:59.587Z,39.7
2022-07-25T07:48:01.603Z,39.7
2022-07-25T07:49:04.497Z,39.8
2022-07-25T07:50:07.083Z,39.6
2022-07-25T07:51:08.663Z,39.7
2022-07-25T07:52:10.314Z,39.7
2022-07-25T07:53:11.876Z,39.9
2022-07-25T07:54:13.548Z,39.7
2022-07-25T07:55:15.172Z,40.1
2022-07-25T07:56:16.951Z,39.9
2022-07-25T07:57:18.526Z,39.8
2022-07-25T07:58:20.182Z,39.9
2022-07-25T07:59:21.885Z,39.8
2022-07-25T08:00:23.597Z,39.7
2022-07-25T08:01:25.431Z,39.8
2022-07-25T08:02:27.435Z,39.9
2022-07-25T08:03:29.285Z,39.9
2022-07-25T08:04:31.023Z,40
2022-07-25T08:05:32.578Z,39.9
2022-07-25T08:06:34.148Z,40
2022-07-25T08:07:35.793Z,40.1
2022-07-25T08:08:37.338Z,40
2022-07-25T08:09:39.162Z,40
2022-07-25T08:10:40.803Z,40
2022-07-25T08:11:42.541Z,40
2022-07-25T08:12:44.077Z,40
2022-07-25T08:13:45.622Z,39.8
2022-07-25T08:14:47.243Z,39.8
2022-07-25T08:15:49.453Z,39.8
2022-07-25T08:16:51.316Z,40
2022-07-25T08:17:53.550Z,39.8
2022-07-25T08:18:55.254Z,39.6
2022-07-25T08:20:20.879Z,39.6
2022-07-25T08:21:40.669Z,39.4
2022-07-25T08:22:42.320Z,39.5
2022-07-25T08:23:43.955Z,39.3
2022-07-25T08:24:46.217Z,39.3
2022-07-25T08:25:47.940Z,39.3
2022-07-25T08:26:49.673Z,39.7
2022-07-25T08:27:51.356Z,39.3
2022-07-25T08:29:19.550Z,39.1
2022-07-25T08:30:29.684Z,39
2022-07-25T08:31:31.646Z,39.1
2022-07-25T08:32:33.480Z,39.8
2022-07-25T08:33:34.996Z,39.1
2022-07-25T08:34:36.591Z,39.1
2022-07-25T08:35:38.198Z,39.3
2022-07-25T08:36:39.948Z,39.2
2022-07-25T08:37:41.458Z,39.1
2022-07-25T08:38:42.998Z,39.1
2022-07-25T08:39:44.551Z,39.2
2022-07-25T08:40:46.222Z,39.1
2022-07-25T08:41:47.805Z,39.4
2022-07-25T08:42:49.457Z,39
2022-07-25T08:43:51.161Z,39.1
2022-07-25T08:44:52.765Z,39.2
2022-07-25T08:45:54.650Z,39.1
2022-07-25T08:46:57.062Z,39.3
2022-07-25T08:47:58.932Z,39.5
2022-07-25T08:49:00.694Z,39.4
2022-07-25T08:50:04.936Z,39.2
2022-07-25T08:51:06.663Z,39.2
2022-07-25T08:52:08.311Z,39.2
2022-07-25T08:53:33.819Z,39.3
2022-07-25T08:54:37.510Z,39.1
2022-07-25T08:55:39.234Z,39.2
2022-07-25T08:56:43.743Z,39.4
2022-07-25T08:57:45.396Z,39.4
2022-07-25T08:58:47.162Z,39.3
2022-07-25T08:59:48.707Z,39.5
2022-07-25T09:00:50.391Z,39.3
2022-07-25T09:01:52.254Z,39.1
2022-07-25T09:02:54.272Z,39.1
2022-07-25T09:03:56.313Z,39.3
2022-07-25T09:04:57.901Z,39.6
2022-07-25T09:05:59.602Z,39.5
2022-07-25T09:07:08.284Z,39.7
2022-07-25T09:08:10.047Z,39.9
2022-07-25T09:09:11.723Z,40.2
2022-07-25T09:10:13.653Z,40
2022-07-25T09:11:15.502Z,39.9
2022-07-25T09:12:17.016Z,39.9
2022-07-25T09:13:18.708Z,40.1
2022-07-25T09:14:20.562Z,40.1
2022-07-25T09:15:23.118Z,40.1
2022-07-25T09:16:27.978Z,40.2
2022-07-25T09:17:30.885Z,40
2022-07-25T09:18:32.971Z,39.9
2022-07-25T09:19:35.004Z,39.9
2022-07-25T09:20:36.772Z,39.9
2022-07-25T09:21:38.620Z,39.9
2022-07-25T09:22:40.258Z,40.1
2022-07-25T09:23:41.877Z,40
2022-07-25T09:24:43.429Z,40.2
2022-07-25T09:25:45.074Z,40.2
2022-07-25T09:26:46.738Z,40.1
2022-07-25T09:27:48.285Z,40.2
2022-07-25T09:28:49.927Z,40.1
2022-07-25T09:29:51.574Z,40.3
2022-07-25T09:30:53.572Z,39.9
2022-07-25T09:31:55.682Z,39.9
2022-07-25T09:32:57.233Z,39.8
2022-07-25T09:33:58.832Z,40
2022-07-25T09:35:00.642Z,40
2022-07-25T09:36:02.470Z,40.1
2022-07-25T09:37:04.220Z,40
2022-07-25T09:38:05.963Z,40
2022-07-25T09:39:07.607Z,40
2022-07-25T09:40:09.502Z,40
2022-07-25T09:41:11.618Z,39.8
2022-07-25T09:42:13.268Z,39.8
2022-07-25T09:43:14.903Z,39.9
2022-07-25T09:44:16.622Z,39.8
2022-07-25T09:45:18.399Z,39.8
2022-07-25T09:46:20.286Z,39.8
2022-07-25T09:47:22.197Z,39.7
2022-07-25T09:48:23.953Z,39.6
2022-07-25T09:49:25.900Z,39.7
2022-07-25T09:50:27.532Z,39.8
2022-07-25T09:51:29.135Z,39.9
2022-07-25T09:52:30.699Z,39.9
2022-07-25T09:53:32.388Z,39.8
2022-07-25T09:54:33.938Z,39.8
2022-07-25T09:55:35.481Z,39.8
2022-07-25T09:56:37.194Z,39.9
2022-07-25T09:57:38.946Z,40
2022-07-25T09:58:40.572Z,39.8
2022-07-25T09:59:42.250Z,39.9
2022-07-25T10:00:43.896Z,39.8
2022-07-25T10:01:45.694Z,40
2022-07-25T10:02:48.009Z,40
2022-07-25T10:03:50.004Z,39.9
2022-07-25T10:04:51.818Z,39.8
2022-07-25T10:05:53.554Z,39.8
2022-07-25T10:06:55.114Z,39.7
2022-07-25T10:07:56.953Z,39.6
2022-07-25T10:08:58.657Z,39.7
2022-07-25T10:10:00.345Z,39.7
2022-07-25T10:11:02.024Z,39.7
2022-07-25T10:12:03.664Z,39.8
2022-07-25T10:13:10.936Z,39.6
2022-07-25T10:14:13.101Z,39.7
2022-07-25T10:15:14.678Z,39.6
2022-07-25T10:16:16.217Z,39.7
2022-07-25T10:17:18.150Z,39.7
2022-07-25T10:18:20.362Z,39.5
2022-07-25T10:19:22.109Z,39.6
2022-07-25T10:20:23.820Z,39.7
2022-07-25T10:21:28.625Z,39.7
2022-07-25T10:22:56.971Z,39.9
2022-07-25T10:24:03.109Z,39.7
2022-07-25T10:25:06.284Z,39.5
2022-07-25T10:26:07.843Z,39.5
2022-07-25T10:27:10.387Z,39.5
2022-07-25T10:28:12.033Z,39.5
2022-07-25T10:29:13.679Z,39.4
2022-07-25T10:30:15.369Z,39.4
2022-07-25T10:31:17.114Z,39.4
2022-07-25T10:32:19.227Z,39.3
2022-07-25T10:33:20.833Z,39.4
2022-07-25T10:34:25.285Z,39.5
2022-07-25T10:35:26.818Z,39.4
2022-07-25T10:36:28.471Z,39.4
2022-07-25T10:37:30.158Z,39.3
2022-07-25T10:38:31.700Z,39.3
2022-07-25T10:39:33.405Z,39.4
2022-07-25T10:40:35.152Z,39.5
2022-07-25T10:41:36.767Z,39.2
2022-07-25T10:42:38.343Z,39.2
2022-07-25T10:43:39.893Z,38.9
2022-07-25T10:44:41.739Z,38.8
2022-07-25T10:45:43.701Z,38.8
2022-07-25T10:46:45.581Z,38.8
2022-07-25T10:47:47.387Z,38.9
2022-07-25T10:48:49.273Z,39
2022-07-25T10:50:29.487Z,39.1
2022-07-25T10:51:58.271Z,39.1
2022-07-25T10:52:59.929Z,39.2
2022-07-25T10:54:01.741Z,39.1
2022-07-25T10:55:03.410Z,39.1
2022-07-25T10:56:07.121Z,39.2
2022-07-25T10:57:08.916Z,39.3
2022-07-25T10:58:18.664Z,39.2
2022-07-25T10:59:20.409Z,39.2
2022-07-25T11:00:21.989Z,39.3
2022-07-25T11:01:23.854Z,39.3
2022-07-25T11:02:26.131Z,39.3
2022-07-25T11:03:28.126Z,39.3
2022-07-25T11:04:29.794Z,39.1
2022-07-25T11:05:31.540Z,39
2022-07-25T11:06:33.290Z,39.1
2022-07-25T11:07:34.923Z,39
2022-07-25T11:08:36.565Z,39.1
2022-07-25T11:09:38.327Z,39.1
2022-07-25T11:10:39.972Z,39.2
2022-07-25T11:11:41.594Z,39.1
2022-07-25T11:12:43.464Z,39.2
2022-07-25T11:13:45.124Z,39.2
2022-07-25T11:14:46.785Z,39.2
2022-07-25T11:15:48.449Z,39
2022-07-25T11:16:50.199Z,38.9
2022-07-25T11:17:52.325Z,38.8
2022-07-25T11:18:53.866Z,39
2022-07-25T11:19:55.596Z,39
2022-07-25T11:20:57.162Z,39.1
2022-07-25T11:21:59.090Z,39.2
2022-07-25T11:23:00.741Z,39.3
2022-07-25T11:24:02.487Z,39.2
2022-07-25T11:25:04.127Z,39.1
2022-07-25T11:26:05.754Z,39.3
2022-07-25T11:27:13.071Z,39
2022-07-25T11:28:15.645Z,39
2022-07-25T11:29:17.304Z,38.9
2022-07-25T11:30:19.110Z,38.9
2022-07-25T11:31:20.785Z,38.7
2022-07-25T11:32:23.321Z,38.4
2022-07-25T11:33:24.974Z,38.5
2022-07-25T11:34:26.717Z,38.5
2022-07-25T11:35:28.565Z,38.5
2022-07-25T11:36:30.738Z,38.5
2022-07-25T11:37:32.472Z,38.6
2022-07-25T11:38:34.121Z,38.6
2022-07-25T11:39:35.865Z,38.4
2022-07-25T11:40:37.589Z,38.4
2022-07-25T11:41:39.205Z,38.4
2022-07-25T11:42:40.765Z,38.4
2022-07-25T11:43:42.390Z,38.5
2022-07-25T11:44:48.392Z,38.6
2022-07-25T11:45:50.398Z,38.5
2022-07-25T11:46:52.209Z,38.4
2022-07-25T11:47:53.876Z,38.4
2022-07-25T11:48:55.644Z,38.5
2022-07-25T11:49:57.850Z,38.6
2022-07-25T11:50:59.666Z,38.6
2022-07-25T11:52:01.350Z,38.5
2022-07-25T11:53:02.971Z,38.5
2022-07-25T11:54:04.736Z,38.5
2022-07-25T11:55:06.505Z,38.5
2022-07-25T11:56:42.776Z,38.5
2022-07-25T11:57:45.720Z,38.4
2022-07-25T11:58:47.445Z,38.3
2022-07-25T11:59:48.993Z,38.2
2022-07-25T12:00:50.658Z,38.2
2022-07-25T12:01:52.537Z,38.2
2022-07-25T12:02:54.856Z,38.1
2022-07-25T12:03:57.121Z,38
2022-07-25T12:04:58.775Z,37.9
2022-07-25T12:06:00.515Z,38.1
2022-07-25T12:07:02.164Z,38.1
2022-07-25T12:08:03.801Z,38.2
2022-07-25T12:09:06.083Z,38.1
2022-07-25T12:10:08.877Z,38.1
2022-07-25T12:11:10.585Z,38
2022-07-25T12:12:13.055Z,37.9
2022-07-25T12:13:14.763Z,37.8
2022-07-25T12:14:16.439Z,38
2022-07-25T12:15:18.095Z,38.1
2022-07-25T12:16:19.958Z,37.8
2022-07-25T12:17:21.784Z,37.4
2022-07-25T12:18:23.434Z,37.6
2022-07-25T12:19:25.116Z,37.4
2022-07-25T12:20:26.693Z,37.6
2022-07-25T12:21:28.363Z,37.6
2022-07-25T12:22:30.030Z,37.4
2022-07-25T12:23:31.760Z,37.4
2022-07-25T12:24:33.315Z,37.6
2022-07-25T12:25:35.008Z,37.7
2022-07-25T12:26:36.657Z,37.9
2022-07-25T12:27:38.458Z,37.9
2022-07-25T12:28:40.261Z,37.9
2022-07-25T12:29:41.981Z,38
2022-07-25T12:30:43.735Z,38
2022-07-25T12:31:46.050Z,37.9
2022-07-25T12:32:47.794Z,37.9
2022-07-25T12:33:49.318Z,37.8
2022-07-25T12:34:54.023Z,37.7
2022-07-25T12:35:56.019Z,37.8
2022-07-25T12:36:57.652Z,37.9
2022-07-25T12:37:59.294Z,38
2022-07-25T12:39:00.984Z,37.9
2022-07-25T12:40:02.806Z,37.8
2022-07-25T12:41:04.851Z,37.8
2022-07-25T12:42:06.490Z,37.8
2022-07-25T12:43:08.016Z,37.9
2022-07-25T12:44:09.754Z,38
2022-07-25T12:45:11.430Z,37.9
2022-07-25T12:46:13.449Z,37.9
2022-07-25T12:47:15.374Z,37.8
2022-07-25T12:48:17.098Z,37.8
2022-07-25T12:49:18.890Z,37.9
2022-07-25T12:50:20.820Z,38
2022-07-25T12:51:22.425Z,37.9
2022-07-25T12:52:24.070Z,38
2022-07-25T12:53:25.688Z,37.9
2022-07-25T12:54:27.337Z,37.9
2022-07-25T12:55:29.208Z,37.9
2022-07-25T12:56:30.957Z,37.9
2022-07-25T12:57:32.885Z,37.9
2022-07-25T12:58:34.555Z,37.9
2022-07-25T12:59:36.179Z,37.9
2022-07-25T13:00:37.750Z,37.9
2022-07-25T13:01:39.525Z,38
2022-07-25T13:02:41.634Z,37.9
2022-07-25T13:03:43.913Z,37.9
2022-07-25T13:04:45.521Z,38
2022-07-25T13:05:47.311Z,38
2022-07-25T13:06:48.945Z,37.9
2022-07-25T13:07:50.561Z,37.9
2022-07-25T13:08:52.244Z,37.9
2022-07-25T13:09:53.785Z,37.9
2022-07-25T13:10:55.427Z,38
2022-07-25T13:11:57.101Z,38
2022-07-25T13:12:58.901Z,38
2022-07-25T13:14:00.574Z,38
2022-07-25T13:15:02.262Z,37.9
2022-07-25T13:16:04.105Z,38
2022-07-25T13:17:06.375Z,37.9
2022-07-25T13:18:08.456Z,37.9
2022-07-25T13:19:11.400Z,37.8
2022-07-25T13:20:13.409Z,37.8
2022-07-25T13:21:15.057Z,37.8
2022-07-25T13:22:16.703Z,37.8
2022-07-25T13:23:21.116Z,37.8
2022-07-25T13:24:22.957Z,37.8
2022-07-25T13:25:24.550Z,37.5
2022-07-25T13:26:26.132Z,37.6
2022-07-25T13:27:27.803Z,37.7
2022-07-25T13:28:29.640Z,37.7
2022-07-25T13:29:31.285Z,37.6
2022-07-25T13:30:33.239Z,37.6
2022-07-25T13:31:36.169Z,37.5
2022-07-25T13:32:38.211Z,37.5
2022-07-25T13:33:39.819Z,37.5
2022-07-25T13:34:41.458Z,37.5
2022-07-25T13:35:43.091Z,37.4
2022-07-25T13:36:44.748Z,37.4
2022-07-25T13:37:46.360Z,37.4
2022-07-25T13:38:48.231Z,37.4
2022-07-25T13:39:50.090Z,37.4
2022-07-25T13:40:59.015Z,37.3
2022-07-25T13:42:01.006Z,37.4
2022-07-25T13:43:02.790Z,37.4
2022-07-25T13:44:04.458Z,37.4
2022-07-25T13:45:06.046Z,37.4
2022-07-25T13:46:07.816Z,37.3
2022-07-25T13:47:09.745Z,37.3
2022-07-25T13:48:30.966Z,37.4
2022-07-25T13:49:33.472Z,37.3
2022-07-25T13:50:35.222Z,37.3
2022-07-25T13:51:36.864Z,37.2
2022-07-25T13:52:38.404Z,37.3
2022-07-25T13:53:40.086Z,37.3
2022-07-25T13:54:41.795Z,37.4
2022-07-25T13:55:43.401Z,37.3
2022-07-25T13:56:45.085Z,37.2